sensor_id;sensor_type;location;lat;lon;timestamp;pressure;altitude;pressure_sealevel;temperature;humidity
28456;BME280;15682;56.742;38.866;2022-10-16T00:01:10;100660.0;;;6.2;82.5
28456;BME280;15682;56.742;38.866;2022-10-16T00:03:09;100660.0;;;6.1;81.4
28456;BME280;15682;56.742;38.866;2022-10-16T00:05:08;100660.0;;;6.1;83.6
28456;BME280;15682;56.742;38.866;2022-10-16T00:07:08;100660.0;;;6.1;83.3
28456;BME280;15682;56.742;38.866;2022-10-16T00:09:09;100660.0;;;6.1;83.3
28456;BME280;15682;56.742;38.866;2022-10-16T00:11:11;100660.0;;;6.0;82.8
28456;BME280;15682;56.742;38.866;2022-10-16T00:13:09;100670.0;;;6.0;82.8
28456;BME280;15682;56.742;38.866;2022-10-16T00:15:09;100670.0;;;6.0;84.0
28456;BME280;15682;56.742;38.866;2022-10-16T00:17:09;100670.0;;;6.0;83.6
28456;BME280;15682;56.742;38.866;2022-10-16T00:19:09;100680.0;;;6.0;83.2
28456;BME280;15682;56.742;38.866;2022-10-16T00:21:12;100690.0;;;6.0;83.3
28456;BME280;15682;56.742;38.866;2022-10-16T00:23:09;100690.0;;;6.0;83.3
28456;BME280;15682;56.742;38.866;2022-10-16T00:25:09;100690.0;;;6.0;84.7
28456;BME280;15682;56.742;38.866;2022-10-16T00:27:09;100690.0;;;6.1;81.7
28456;BME280;15682;56.742;38.866;2022-10-16T00:29:09;100690.0;;;6.1;83.2
28456;BME280;15682;56.742;38.866;2022-10-16T00:31:11;100690.0;;;6.0;81.6
28456;BME280;15682;56.742;38.866;2022-10-16T00:33:09;100690.0;;;5.9;82.2
28456;BME280;15682;56.742;38.866;2022-10-16T00:35:09;100690.0;;;5.9;83.0
28456;BME280;15682;56.742;38.866;2022-10-16T00:37:09;100690.0;;;5.7;84.0
28456;BME280;15682;56.742;38.866;2022-10-16T00:39:09;100690.0;;;5.7;82.7
28456;BME280;15682;56.742;38.866;2022-10-16T00:41:12;100690.0;;;5.7;82.6
28456;BME280;15682;56.742;38.866;2022-10-16T00:43:13;100690.0;;;5.7;83.7
28456;BME280;15682;56.742;38.866;2022-10-16T00:45:10;100690.0;;;5.7;83.2
28456;BME280;15682;56.742;38.866;2022-10-16T00:47:12;100690.0;;;5.7;84.1
28456;BME280;15682;56.742;38.866;2022-10-16T00:49:12;100690.0;;;5.7;83.8
28456;BME280;15682;56.742;38.866;2022-10-16T00:51:10;100690.0;;;5.7;83.9
28456;BME280;15682;56.742;38.866;2022-10-16T00:53:10;100690.0;;;5.8;83.1
28456;BME280;15682;56.742;38.866;2022-10-16T00:55:10;100690.0;;;5.8;83.1
28456;BME280;15682;56.742;38.866;2022-10-16T00:57:10;100690.0;;;5.6;85.9
28456;BME280;15682;56.742;38.866;2022-10-16T00:59:16;100690.0;;;5.6;84.7
28456;BME280;15682;56.742;38.866;2022-10-16T01:01:10;100690.0;;;5.6;83.9
28456;BME280;15682;56.742;38.866;2022-10-16T01:03:24;100690.0;;;5.6;83.9
28456;BME280;15682;56.742;38.866;2022-10-16T01:05:10;100700.0;;;5.6;82.9
28456;BME280;15682;56.742;38.866;2022-10-16T01:07:16;100700.0;;;5.6;83.0
28456;BME280;15682;56.742;38.866;2022-10-16T01:09:15;100700.0;;;5.6;83.0
28456;BME280;15682;56.742;38.866;2022-10-16T01:11:17;100710.0;;;5.5;82.6
28456;BME280;15682;56.742;38.866;2022-10-16T01:13:13;100710.0;;;5.3;84.5
28456;BME280;15682;56.742;38.866;2022-10-16T01:15:17;100710.0;;;5.3;86.3
28456;BME280;15682;56.742;38.866;2022-10-16T01:17:12;100710.0;;;5.5;84.1
28456;BME280;15682;56.742;38.866;2022-10-16T01:19:15;100710.0;;;5.5;83.3
28456;BME280;15682;56.742;38.866;2022-10-16T01:21:12;100710.0;;;5.5;82.4
28456;BME280;15682;56.742;38.866;2022-10-16T01:23:22;100710.0;;;5.5;82.7
28456;BME280;15682;56.742;38.866;2022-10-16T01:25:18;100710.0;;;5.5;82.7
28456;BME280;15682;56.742;38.866;2022-10-16T01:27:12;100710.0;;;5.3;82.7
28456;BME280;15682;56.742;38.866;2022-10-16T01:29:16;100710.0;;;5.3;84.0
28456;BME280;15682;56.742;38.866;2022-10-16T01:31:12;100710.0;;;5.2;83.4
28456;BME280;15682;56.742;38.866;2022-10-16T01:33:14;100710.0;;;5.2;82.8
28456;BME280;15682;56.742;38.866;2022-10-16T01:35:16;100710.0;;;5.3;83.3
28456;BME280;15682;56.742;38.866;2022-10-16T01:37:14;100710.0;;;5.3;82.8
28456;BME280;15682;56.742;38.866;2022-10-16T01:39:11;100710.0;;;5.3;82.8
28456;BME280;15682;56.742;38.866;2022-10-16T01:41:14;100720.0;;;5.1;83.3
28456;BME280;15682;56.742;38.866;2022-10-16T01:43:14;100720.0;;;5.3;83.3
28456;BME280;15682;56.742;38.866;2022-10-16T01:45:13;100720.0;;;5.3;82.6
28456;BME280;15682;56.742;38.866;2022-10-16T01:47:12;100720.0;;;5.1;83.0
28456;BME280;15682;56.742;38.866;2022-10-16T01:49:11;100730.0;;;5.1;83.5
28456;BME280;15682;56.742;38.866;2022-10-16T01:51:13;100730.0;;;5.1;83.4
28456;BME280;15682;56.742;38.866;2022-10-16T01:53:13;100730.0;;;5.2;83.4
28456;BME280;15682;56.742;38.866;2022-10-16T01:55:13;100740.0;;;5.2;83.4
28456;BME280;15682;56.742;38.866;2022-10-16T01:57:13;100740.0;;;5.2;84.2
28456;BME280;15682;56.742;38.866;2022-10-16T01:59:14;100740.0;;;5.3;83.0
28456;BME280;15682;56.742;38.866;2022-10-16T02:01:14;100740.0;;;5.3;83.0
28456;BME280;15682;56.742;38.866;2022-10-16T02:03:13;100740.0;;;5.3;82.3
28456;BME280;15682;56.742;38.866;2022-10-16T02:05:16;100740.0;;;5.3;82.3
28456;BME280;15682;56.742;38.866;2022-10-16T02:07:12;100740.0;;;5.3;82.3
28456;BME280;15682;56.742;38.866;2022-10-16T02:09:11;100740.0;;;5.3;82.5
28456;BME280;15682;56.742;38.866;2022-10-16T02:11:11;100740.0;;;5.3;83.1
28456;BME280;15682;56.742;38.866;2022-10-16T02:13:17;100740.0;;;5.1;83.6
28456;BME280;15682;56.742;38.866;2022-10-16T02:15:11;100740.0;;;5.1;84.3
28456;BME280;15682;56.742;38.866;2022-10-16T02:17:13;100740.0;;;5.0;84.3
28456;BME280;15682;56.742;38.866;2022-10-16T02:19:12;100740.0;;;5.1;84.3
28456;BME280;15682;56.742;38.866;2022-10-16T02:21:16;100740.0;;;5.1;84.3
28456;BME280;15682;56.742;38.866;2022-10-16T02:23:17;100740.0;;;5.0;83.9
28456;BME280;15682;56.742;38.866;2022-10-16T02:25:16;100740.0;;;5.0;83.9
28456;BME280;15682;56.742;38.866;2022-10-16T02:27:16;100740.0;;;4.9;83.9
28456;BME280;15682;56.742;38.866;2022-10-16T02:29:14;100740.0;;;4.8;83.9
28456;BME280;15682;56.742;38.866;2022-10-16T02:31:13;100740.0;;;4.8;84.7
28456;BME280;15682;56.742;38.866;2022-10-16T02:33:13;100740.0;;;4.6;84.7
28456;BME280;15682;56.742;38.866;2022-10-16T02:35:12;100740.0;;;4.6;85.3
28456;BME280;15682;56.742;38.866;2022-10-16T02:37:12;100740.0;;;4.6;85.3
28456;BME280;15682;56.742;38.866;2022-10-16T02:39:12;100740.0;;;4.6;85.3
28456;BME280;15682;56.742;38.866;2022-10-16T02:41:12;100740.0;;;4.4;85.1
28456;BME280;15682;56.742;38.866;2022-10-16T02:43:12;100740.0;;;4.4;85.8
28456;BME280;15682;56.742;38.866;2022-10-16T02:45:12;100740.0;;;4.4;85.8
28456;BME280;15682;56.742;38.866;2022-10-16T02:47:12;100740.0;;;4.3;85.8
28456;BME280;15682;56.742;38.866;2022-10-16T02:49:12;100740.0;;;4.3;85.8
28456;BME280;15682;56.742;38.866;2022-10-16T02:51:12;100740.0;;;4.3;86.1
28456;BME280;15682;56.742;38.866;2022-10-16T02:53:12;100750.0;;;4.4;85.3
28456;BME280;15682;56.742;38.866;2022-10-16T02:55:12;100750.0;;;4.2;86.0
28456;BME280;15682;56.742;38.866;2022-10-16T02:57:12;100750.0;;;4.3;86.0
28456;BME280;15682;56.742;38.866;2022-10-16T02:59:12;100750.0;;;4.3;86.0
28456;BME280;15682;56.742;38.866;2022-10-16T03:01:12;100750.0;;;4.3;85.6
28456;BME280;15682;56.742;38.866;2022-10-16T03:03:12;100750.0;;;4.1;86.7
28456;BME280;15682;56.742;38.866;2022-10-16T03:05:12;100750.0;;;4.1;86.4
28456;BME280;15682;56.742;38.866;2022-10-16T03:07:12;100760.0;;;4.1;86.2
28456;BME280;15682;56.742;38.866;2022-10-16T03:09:12;100760.0;;;4.1;86.2
28456;BME280;15682;56.742;38.866;2022-10-16T03:11:12;100760.0;;;4.1;86.4
28456;BME280;15682;56.742;38.866;2022-10-16T03:13:12;100760.0;;;4.1;86.4
28456;BME280;15682;56.742;38.866;2022-10-16T03:15:12;100760.0;;;4.0;86.4
28456;BME280;15682;56.742;38.866;2022-10-16T03:17:12;100760.0;;;4.0;86.9
28456;BME280;15682;56.742;38.866;2022-10-16T03:19:12;100760.0;;;4.0;86.9
28456;BME280;15682;56.742;38.866;2022-10-16T03:21:12;100760.0;;;4.0;87.5
28456;BME280;15682;56.742;38.866;2022-10-16T03:23:12;100760.0;;;3.9;87.5
28456;BME280;15682;56.742;38.866;2022-10-16T03:25:12;100760.0;;;3.9;87.6
28456;BME280;15682;56.742;38.866;2022-10-16T03:27:12;100760.0;;;3.9;86.9
28456;BME280;15682;56.742;38.866;2022-10-16T03:29:12;100760.0;;;3.9;86.9
28456;BME280;15682;56.742;38.866;2022-10-16T03:31:12;100760.0;;;3.9;87.0
28456;BME280;15682;56.742;38.866;2022-10-16T03:33:12;100760.0;;;3.9;87.4
28456;BME280;15682;56.742;38.866;2022-10-16T03:35:12;100760.0;;;3.9;87.4
28456;BME280;15682;56.742;38.866;2022-10-16T03:37:12;100760.0;;;3.9;87.4
28456;BME280;15682;56.742;38.866;2022-10-16T03:39:12;100760.0;;;3.9;87.4
28456;BME280;15682;56.742;38.866;2022-10-16T03:41:12;100760.0;;;3.9;87.4
28456;BME280;15682;56.742;38.866;2022-10-16T03:43:12;100760.0;;;3.8;87.4
28456;BME280;15682;56.742;38.866;2022-10-16T03:45:12;100760.0;;;3.8;88.2
28456;BME280;15682;56.742;38.866;2022-10-16T03:47:12;100760.0;;;3.8;87.5
28456;BME280;15682;56.742;38.866;2022-10-16T03:49:12;100760.0;;;3.8;87.5
28456;BME280;15682;56.742;38.866;2022-10-16T03:51:12;100760.0;;;3.6;87.6
28456;BME280;15682;56.742;38.866;2022-10-16T03:53:12;100760.0;;;3.6;87.6
28456;BME280;15682;56.742;38.866;2022-10-16T03:55:12;100760.0;;;3.7;87.6
28456;BME280;15682;56.742;38.866;2022-10-16T03:57:12;100770.0;;;3.6;87.6
28456;BME280;15682;56.742;38.866;2022-10-16T03:59:12;100770.0;;;3.6;87.6
28456;BME280;15682;56.742;38.866;2022-10-16T04:01:12;100770.0;;;3.5;87.9
28456;BME280;15682;56.742;38.866;2022-10-16T04:03:12;100770.0;;;3.5;87.9
28456;BME280;15682;56.742;38.866;2022-10-16T04:05:12;100770.0;;;3.5;87.9
28456;BME280;15682;56.742;38.866;2022-10-16T04:07:12;100770.0;;;3.5;87.9
28456;BME280;15682;56.742;38.866;2022-10-16T04:09:12;100770.0;;;3.5;87.9
28456;BME280;15682;56.742;38.866;2022-10-16T04:11:12;100770.0;;;3.4;88.1
28456;BME280;15682;56.742;38.866;2022-10-16T04:13:12;100770.0;;;3.4;88.1
28456;BME280;15682;56.742;38.866;2022-10-16T04:15:12;100770.0;;;3.4;88.1
28456;BME280;15682;56.742;38.866;2022-10-16T04:17:12;100770.0;;;3.4;88.1
28456;BME280;15682;56.742;38.866;2022-10-16T04:19:12;100780.0;;;3.4;88.1
28456;BME280;15682;56.742;38.866;2022-10-16T04:21:12;100780.0;;;3.4;88.7
28456;BME280;15682;56.742;38.866;2022-10-16T04:22:36;100780.0;;;3.8;88.3
28456;BME280;15682;56.742;38.866;2022-10-16T04:26:01;100780.0;;;3.3;88.1
28456;BME280;15682;56.742;38.866;2022-10-16T04:27:12;100780.0;;;3.3;88.1
28456;BME280;15682;56.742;38.866;2022-10-16T04:29:12;100780.0;;;3.3;88.1
28456;BME280;15682;56.742;38.866;2022-10-16T04:31:13;100780.0;;;3.3;88.3
28456;BME280;15682;56.742;38.866;2022-10-16T04:33:12;100780.0;;;3.4;88.3
28456;BME280;15682;56.742;38.866;2022-10-16T04:35:13;100780.0;;;3.4;88.3
28456;BME280;15682;56.742;38.866;2022-10-16T04:37:12;100780.0;;;3.4;88.3
28456;BME280;15682;56.742;38.866;2022-10-16T04:39:12;100780.0;;;3.4;88.3
28456;BME280;15682;56.742;38.866;2022-10-16T04:41:12;100780.0;;;3.4;87.8
28456;BME280;15682;56.742;38.866;2022-10-16T04:43:12;100780.0;;;3.4;87.8
28456;BME280;15682;56.742;38.866;2022-10-16T04:45:12;100780.0;;;3.4;87.8
28456;BME280;15682;56.742;38.866;2022-10-16T04:47:12;100780.0;;;3.4;87.8
28456;BME280;15682;56.742;38.866;2022-10-16T04:49:12;100780.0;;;3.4;87.8
28456;BME280;15682;56.742;38.866;2022-10-16T04:51:12;100780.0;;;3.4;88.1
28456;BME280;15682;56.742;38.866;2022-10-16T04:53:12;100780.0;;;3.4;88.1
28456;BME280;15682;56.742;38.866;2022-10-16T04:55:12;100780.0;;;3.4;88.1
28456;BME280;15682;56.742;38.866;2022-10-16T04:57:12;100780.0;;;3.5;88.1
28456;BME280;15682;56.742;38.866;2022-10-16T04:59:12;100780.0;;;3.5;88.1
28456;BME280;15682;56.742;38.866;2022-10-16T05:01:12;100780.0;;;3.5;87.9
28456;BME280;15682;56.742;38.866;2022-10-16T05:03:12;100780.0;;;3.6;87.2
28456;BME280;15682;56.742;38.866;2022-10-16T05:05:12;100780.0;;;3.6;87.2
28456;BME280;15682;56.742;38.866;2022-10-16T05:07:12;100780.0;;;3.6;87.2
28456;BME280;15682;56.742;38.866;2022-10-16T05:09:13;100780.0;;;3.6;87.2
28456;BME280;15682;56.742;38.866;2022-10-16T05:11:12;100780.0;;;3.6;87.0
28456;BME280;15682;56.742;38.866;2022-10-16T05:13:12;100780.0;;;3.6;87.0
28456;BME280;15682;56.742;38.866;2022-10-16T05:15:12;100780.0;;;3.6;87.0
28456;BME280;15682;56.742;38.866;2022-10-16T05:17:12;100780.0;;;3.8;87.0
28456;BME280;15682;56.742;38.866;2022-10-16T05:19:12;100780.0;;;3.8;87.0
28456;BME280;15682;56.742;38.866;2022-10-16T05:21:12;100790.0;;;3.9;87.1
28456;BME280;15682;56.742;38.866;2022-10-16T05:23:12;100790.0;;;4.0;87.1
28456;BME280;15682;56.742;38.866;2022-10-16T05:25:12;100790.0;;;4.0;87.1
28456;BME280;15682;56.742;38.866;2022-10-16T05:27:12;100790.0;;;4.0;86.5
28456;BME280;15682;56.742;38.866;2022-10-16T05:29:12;100790.0;;;4.1;86.5
28456;BME280;15682;56.742;38.866;2022-10-16T05:31:12;100790.0;;;4.1;86.5
28456;BME280;15682;56.742;38.866;2022-10-16T05:33:12;100800.0;;;4.2;86.5
28456;BME280;15682;56.742;38.866;2022-10-16T05:35:12;100800.0;;;4.2;86.5
28456;BME280;15682;56.742;38.866;2022-10-16T05:37:12;100800.0;;;4.3;86.5
28456;BME280;15682;56.742;38.866;2022-10-16T05:39:13;100800.0;;;4.3;85.9
28456;BME280;15682;56.742;38.866;2022-10-16T05:41:12;100800.0;;;4.5;85.7
28456;BME280;15682;56.742;38.866;2022-10-16T05:43:12;100800.0;;;4.5;85.7
28456;BME280;15682;56.742;38.866;2022-10-16T05:45:12;100810.0;;;4.6;85.7
28456;BME280;15682;56.742;38.866;2022-10-16T05:47:13;100810.0;;;4.6;85.7
28456;BME280;15682;56.742;38.866;2022-10-16T05:49:12;100810.0;;;4.7;85.4
28456;BME280;15682;56.742;38.866;2022-10-16T05:51:13;100810.0;;;4.7;85.6
28456;BME280;15682;56.742;38.866;2022-10-16T05:53:12;100810.0;;;4.9;84.9
28456;BME280;15682;56.742;38.866;2022-10-16T05:55:12;100810.0;;;4.9;84.9
28456;BME280;15682;56.742;38.866;2022-10-16T05:57:12;100810.0;;;5.0;84.9
28456;BME280;15682;56.742;38.866;2022-10-16T05:59:12;100810.0;;;5.1;84.9
28456;BME280;15682;56.742;38.866;2022-10-16T06:01:13;100810.0;;;5.1;84.3
28456;BME280;15682;56.742;38.866;2022-10-16T06:03:12;100810.0;;;5.2;84.3
28456;BME280;15682;56.742;38.866;2022-10-16T06:05:12;100810.0;;;5.3;84.3
28456;BME280;15682;56.742;38.866;2022-10-16T06:07:12;100810.0;;;5.3;83.8
28456;BME280;15682;56.742;38.866;2022-10-16T06:09:12;100810.0;;;5.3;84.3
28456;BME280;15682;56.742;38.866;2022-10-16T06:11:13;100810.0;;;5.5;84.1
28456;BME280;15682;56.742;38.866;2022-10-16T06:13:13;100810.0;;;5.5;84.1
28456;BME280;15682;56.742;38.866;2022-10-16T06:15:12;100810.0;;;5.6;83.7
28456;BME280;15682;56.742;38.866;2022-10-16T06:17:13;100810.0;;;5.7;83.7
28456;BME280;15682;56.742;38.866;2022-10-16T06:19:12;100810.0;;;6.0;83.1
28456;BME280;15682;56.742;38.866;2022-10-16T06:21:16;100810.0;;;6.2;82.0
28456;BME280;15682;56.742;38.866;2022-10-16T06:23:12;100810.0;;;6.5;82.0
28456;BME280;15682;56.742;38.866;2022-10-16T06:25:12;100810.0;;;6.5;80.5
28456;BME280;15682;56.742;38.866;2022-10-16T06:27:12;100810.0;;;6.6;79.2
28456;BME280;15682;56.742;38.866;2022-10-16T06:29:13;100810.0;;;6.7;79.2
28456;BME280;15682;56.742;38.866;2022-10-16T06:31:13;100820.0;;;6.9;80.2
28456;BME280;15682;56.742;38.866;2022-10-16T06:33:12;100820.0;;;7.1;79.4
28456;BME280;15682;56.742;38.866;2022-10-16T06:35:13;100820.0;;;7.1;80.8
28456;BME280;15682;56.742;38.866;2022-10-16T06:37:13;100820.0;;;7.1;77.7
28456;BME280;15682;56.742;38.866;2022-10-16T06:39:13;100820.0;;;7.2;77.0
28456;BME280;15682;56.742;38.866;2022-10-16T06:41:15;100820.0;;;7.2;77.2
28456;BME280;15682;56.742;38.866;2022-10-16T06:43:13;100820.0;;;7.3;77.2
28456;BME280;15682;56.742;38.866;2022-10-16T06:45:13;100820.0;;;7.4;77.2
28456;BME280;15682;56.742;38.866;2022-10-16T06:47:13;100820.0;;;7.7;77.2
28456;BME280;15682;56.742;38.866;2022-10-16T06:49:13;100820.0;;;7.7;76.6
28456;BME280;15682;56.742;38.866;2022-10-16T06:51:14;100820.0;;;7.7;76.1
28456;BME280;15682;56.742;38.866;2022-10-16T06:53:13;100820.0;;;7.9;76.1
28456;BME280;15682;56.742;38.866;2022-10-16T06:55:13;100820.0;;;7.9;78.1
28456;BME280;15682;56.742;38.866;2022-10-16T06:57:13;100820.0;;;7.9;75.2
28456;BME280;15682;56.742;38.866;2022-10-16T06:59:13;100820.0;;;7.9;74.5
28456;BME280;15682;56.742;38.866;2022-10-16T07:01:14;100820.0;;;8.0;74.9
28456;BME280;15682;56.742;38.866;2022-10-16T07:03:14;100820.0;;;8.2;74.9
28456;BME280;15682;56.742;38.866;2022-10-16T07:05:14;100820.0;;;8.2;73.9
28456;BME280;15682;56.742;38.866;2022-10-16T07:07:14;100820.0;;;8.3;73.9
28456;BME280;15682;56.742;38.866;2022-10-16T07:09:14;100830.0;;;8.3;73.4
28456;BME280;15682;56.742;38.866;2022-10-16T07:11:16;100830.0;;;8.5;73.3
28456;BME280;15682;56.742;38.866;2022-10-16T07:13:14;100830.0;;;8.6;73.5
28456;BME280;15682;56.742;38.866;2022-10-16T07:15:14;100830.0;;;8.8;72.9
28456;BME280;15682;56.742;38.866;2022-10-16T07:17:14;100830.0;;;8.9;72.9
28456;BME280;15682;56.742;38.866;2022-10-16T07:19:15;100830.0;;;8.9;73.3
28456;BME280;15682;56.742;38.866;2022-10-16T07:21:16;100840.0;;;9.0;74.4
28456;BME280;15682;56.742;38.866;2022-10-16T07:23:14;100840.0;;;9.1;72.8
28456;BME280;15682;56.742;38.866;2022-10-16T07:25:14;100840.0;;;9.1;71.0
28456;BME280;15682;56.742;38.866;2022-10-16T07:27:14;100840.0;;;9.2;71.0
28456;BME280;15682;56.742;38.866;2022-10-16T07:29:17;100840.0;;;9.3;70.5
28456;BME280;15682;56.742;38.866;2022-10-16T07:31:16;100840.0;;;9.5;70.2
28456;BME280;15682;56.742;38.866;2022-10-16T07:33:15;100840.0;;;9.6;70.2
28456;BME280;15682;56.742;38.866;2022-10-16T07:35:15;100840.0;;;9.6;71.9
28456;BME280;15682;56.742;38.866;2022-10-16T07:37:15;100840.0;;;9.6;70.0
28456;BME280;15682;56.742;38.866;2022-10-16T07:39:15;100840.0;;;9.7;70.0
28456;BME280;15682;56.742;38.866;2022-10-16T07:41:17;100840.0;;;9.7;72.4
28456;BME280;15682;56.742;38.866;2022-10-16T07:43:15;100840.0;;;9.8;70.1
28456;BME280;15682;56.742;38.866;2022-10-16T07:45:15;100840.0;;;9.9;69.3
28456;BME280;15682;56.742;38.866;2022-10-16T07:47:16;100840.0;;;9.9;68.8
28456;BME280;15682;56.742;38.866;2022-10-16T07:49:16;100840.0;;;9.9;68.8
28456;BME280;15682;56.742;38.866;2022-10-16T07:51:18;100840.0;;;9.9;68.9
28456;BME280;15682;56.742;38.866;2022-10-16T07:53:16;100840.0;;;10.0;68.0
28456;BME280;15682;56.742;38.866;2022-10-16T07:55:16;100840.0;;;10.0;68.0
28456;BME280;15682;56.742;38.866;2022-10-16T07:57:16;100840.0;;;10.0;68.0
28456;BME280;15682;56.742;38.866;2022-10-16T07:59:16;100840.0;;;10.1;67.4
28456;BME280;15682;56.742;38.866;2022-10-16T08:01:17;100840.0;;;10.2;67.2
28456;BME280;15682;56.742;38.866;2022-10-16T08:03:17;100840.0;;;10.4;67.2
28456;BME280;15682;56.742;38.866;2022-10-16T08:05:17;100840.0;;;10.4;67.2
28456;BME280;15682;56.742;38.866;2022-10-16T08:07:17;100840.0;;;10.4;66.9
28456;BME280;15682;56.742;38.866;2022-10-16T08:09:17;100840.0;;;10.6;66.9
28456;BME280;15682;56.742;38.866;2022-10-16T08:11:18;100840.0;;;10.6;66.6
28456;BME280;15682;56.742;38.866;2022-10-16T08:13:17;100840.0;;;10.6;70.1
28456;BME280;15682;56.742;38.866;2022-10-16T08:15:18;100840.0;;;10.6;66.9
28456;BME280;15682;56.742;38.866;2022-10-16T08:17:18;100840.0;;;10.7;65.7
28456;BME280;15682;56.742;38.866;2022-10-16T08:19:18;100840.0;;;10.7;65.7
28456;BME280;15682;56.742;38.866;2022-10-16T08:21:20;100840.0;;;10.7;66.2
28456;BME280;15682;56.742;38.866;2022-10-16T08:23:18;100840.0;;;10.8;66.4
28456;BME280;15682;56.742;38.866;2022-10-16T08:25:18;100840.0;;;10.8;68.0
28456;BME280;15682;56.742;38.866;2022-10-16T08:27:18;100840.0;;;10.8;65.2
28456;BME280;15682;56.742;38.866;2022-10-16T08:29:18;100830.0;;;10.8;65.2
28456;BME280;15682;56.742;38.866;2022-10-16T08:31:19;100830.0;;;11.0;65.3
28456;BME280;15682;56.742;38.866;2022-10-16T08:33:20;100830.0;;;11.0;67.0
28456;BME280;15682;56.742;38.866;2022-10-16T08:35:19;100830.0;;;11.0;65.0
28456;BME280;15682;56.742;38.866;2022-10-16T08:37:20;100830.0;;;11.0;65.0
28456;BME280;15682;56.742;38.866;2022-10-16T08:39:19;100820.0;;;11.0;64.4
28456;BME280;15682;56.742;38.866;2022-10-16T08:41:29;100820.0;;;11.0;65.7
28456;BME280;15682;56.742;38.866;2022-10-16T08:43:33;100810.0;;;10.9;64.6
28456;BME280;15682;56.742;38.866;2022-10-16T08:45:27;100810.0;;;11.0;65.7
28456;BME280;15682;56.742;38.866;2022-10-16T08:47:22;100810.0;;;11.1;64.0
28456;BME280;15682;56.742;38.866;2022-10-16T08:49:20;100810.0;;;11.1;64.0
28456;BME280;15682;56.742;38.866;2022-10-16T08:51:23;100810.0;;;11.2;63.6
28456;BME280;15682;56.742;38.866;2022-10-16T08:53:25;100810.0;;;11.2;64.2
28456;BME280;15682;56.742;38.866;2022-10-16T08:55:30;100810.0;;;11.3;63.4
28456;BME280;15682;56.742;38.866;2022-10-16T08:57:22;100810.0;;;11.3;63.4
28456;BME280;15682;56.742;38.866;2022-10-16T08:59:21;100810.0;;;11.3;63.9
28456;BME280;15682;56.742;38.866;2022-10-16T09:01:22;100810.0;;;11.3;64.6
28456;BME280;15682;56.742;38.866;2022-10-16T09:03:32;100810.0;;;11.2;64.6
28456;BME280;15682;56.742;38.866;2022-10-16T09:05:27;100810.0;;;11.2;63.5
28456;BME280;15682;56.742;38.866;2022-10-16T09:07:27;100810.0;;;11.2;64.9
28456;BME280;15682;56.742;38.866;2022-10-16T09:09:44;100810.0;;;11.2;64.9
28456;BME280;15682;56.742;38.866;2022-10-16T09:11:30;100810.0;;;11.4;63.0
28456;BME280;15682;56.742;38.866;2022-10-16T09:13:28;100810.0;;;11.5;63.0
28456;BME280;15682;56.742;38.866;2022-10-16T09:15:29;100810.0;;;11.5;63.2
28456;BME280;15682;56.742;38.866;2022-10-16T09:17:30;100810.0;;;11.5;63.1
28456;BME280;15682;56.742;38.866;2022-10-16T09:19:27;100810.0;;;11.5;63.1
28456;BME280;15682;56.742;38.866;2022-10-16T09:21:25;100810.0;;;11.5;62.9
28456;BME280;15682;56.742;38.866;2022-10-16T09:23:26;100810.0;;;11.7;62.6
28456;BME280;15682;56.742;38.866;2022-10-16T09:25:23;100810.0;;;11.7;63.6
28456;BME280;15682;56.742;38.866;2022-10-16T09:27:23;100810.0;;;11.7;63.4
28456;BME280;15682;56.742;38.866;2022-10-16T09:29:23;100810.0;;;11.7;63.4
28456;BME280;15682;56.742;38.866;2022-10-16T09:31:23;100810.0;;;11.7;64.4
28456;BME280;15682;56.742;38.866;2022-10-16T09:33:27;100810.0;;;11.6;65.3
28456;BME280;15682;56.742;38.866;2022-10-16T09:35:31;100810.0;;;11.6;64.2
28456;BME280;15682;56.742;38.866;2022-10-16T09:37:24;100810.0;;;11.6;64.4
28456;BME280;15682;56.742;38.866;2022-10-16T09:39:24;100810.0;;;11.7;62.6
28456;BME280;15682;56.742;38.866;2022-10-16T09:41:24;100810.0;;;11.7;64.0
28456;BME280;15682;56.742;38.866;2022-10-16T09:43:25;100810.0;;;11.8;63.4
28456;BME280;15682;56.742;38.866;2022-10-16T09:45:24;100800.0;;;11.9;62.9
28456;BME280;15682;56.742;38.866;2022-10-16T09:47:26;100790.0;;;11.7;64.4
28456;BME280;15682;56.742;38.866;2022-10-16T09:49:26;100790.0;;;11.5;63.5
28456;BME280;15682;56.742;38.866;2022-10-16T09:51:27;100800.0;;;11.5;62.3
28456;BME280;15682;56.742;38.866;2022-10-16T09:53:27;100800.0;;;11.7;61.3
28456;BME280;15682;56.742;38.866;2022-10-16T09:55:25;100800.0;;;11.7;61.3
28456;BME280;15682;56.742;38.866;2022-10-16T09:57:26;100800.0;;;11.7;61.3
28456;BME280;15682;56.742;38.866;2022-10-16T09:59:25;100800.0;;;11.7;62.3
28456;BME280;15682;56.742;38.866;2022-10-16T10:01:30;100800.0;;;11.7;61.6
28456;BME280;15682;56.742;38.866;2022-10-16T10:03:35;100800.0;;;11.6;62.9
28456;BME280;15682;56.742;38.866;2022-10-16T10:05:28;100800.0;;;11.6;62.3
28456;BME280;15682;56.742;38.866;2022-10-16T10:07:28;100800.0;;;11.6;63.2
28456;BME280;15682;56.742;38.866;2022-10-16T10:09:28;100800.0;;;11.7;62.3
28456;BME280;15682;56.742;38.866;2022-10-16T10:11:44;100800.0;;;11.7;61.7
28456;BME280;15682;56.742;38.866;2022-10-16T10:13:27;100800.0;;;11.8;63.1
28456;BME280;15682;56.742;38.866;2022-10-16T10:15:32;100800.0;;;11.8;61.2
28456;BME280;15682;56.742;38.866;2022-10-16T10:17:28;100790.0;;;11.8;61.3
28456;BME280;15682;56.742;38.866;2022-10-16T10:19:27;100800.0;;;12.0;60.5
28456;BME280;15682;56.742;38.866;2022-10-16T10:21:27;100790.0;;;12.0;59.9
28456;BME280;15682;56.742;38.866;2022-10-16T10:23:29;100790.0;;;12.0;61.4
28456;BME280;15682;56.742;38.866;2022-10-16T10:25:39;100790.0;;;12.0;61.4
28456;BME280;15682;56.742;38.866;2022-10-16T10:27:35;100790.0;;;12.0;60.5
28456;BME280;15682;56.742;38.866;2022-10-16T10:29:37;100790.0;;;12.0;60.5
28456;BME280;15682;56.742;38.866;2022-10-16T10:31:35;100790.0;;;11.9;61.3
28456;BME280;15682;56.742;38.866;2022-10-16T10:33:34;100790.0;;;11.8;61.3
28456;BME280;15682;56.742;38.866;2022-10-16T10:35:34;100790.0;;;11.8;61.3
28456;BME280;15682;56.742;38.866;2022-10-16T10:37:41;100790.0;;;11.8;64.5
28456;BME280;15682;56.742;38.866;2022-10-16T10:39:34;100790.0;;;11.8;60.4
28456;BME280;15682;56.742;38.866;2022-10-16T10:42:00;100790.0;;;11.8;60.4
28456;BME280;15682;56.742;38.866;2022-10-16T10:43:40;100790.0;;;11.9;60.4
28456;BME280;15682;56.742;38.866;2022-10-16T10:45:38;100790.0;;;11.9;60.4
28456;BME280;15682;56.742;38.866;2022-10-16T10:47:40;100790.0;;;11.9;60.2
28456;BME280;15682;56.742;38.866;2022-10-16T10:49:38;100790.0;;;11.9;60.2
28456;BME280;15682;56.742;38.866;2022-10-16T10:51:39;100780.0;;;12.0;64.4